Terminal Aerodrome Forecast
Issued by NWS

Home | Current Version | Previous Version | Text Only | Print | Product List | Glossary On
Versions: 1 2 3 4 5 6 7 8 9 10 11 12 13 14 15 16 17 18 19 20
562
FTUS43 KGRR 011929 AAA
TAFJXN
TAF AMD
KJXN 011929Z 0119/0218 04008KT P6SM OVC007
      TEMPO 0120/0121 4SM BR OVC003
     FM012300 04010KT 6SM BR VCSH OVC007
     FM020200 06009KT 5SM BR VCSH OVC007
     FM020500 05008KT 3SM BR VCSH OVC003
     FM021500 04008KT P6SM BKN015=

USA.gov is the U.S. government's official web portal to all federal, state and local government web resources and services.